Time;durP1;ratioP1;P1;durP2;ratioP2;P2;SDS_P1;SDS_P2;PMS_P1;PMS_P2;Temp;Humidity;BMP_temperature;BMP_pressure;BME280_temperature;BME280_humidity;BME280_pressure;Samples;Min_cycle;Max_cycle;Signal;HPM_P1;HPM_P2
2023/08/16 00:01:31;;;;;;;4.47;3.17;;;;;;;21.15;100.00;96782.03;5040869;28;20191;-63
2023/08/16 00:03:59;;;;;;;3.75;3.40;;;;;;;21.10;100.00;96777.28;5040688;28;20289;-64
2023/08/16 00:06:25;;;;;;;4.53;3.40;;;;;;;21.10;100.00;96787.16;5040377;28;20527;-62
2023/08/16 00:08:57;;;;;;;4.88;3.55;;;;;;;21.10;100.00;96784.47;5040775;28;20196;-62
2023/08/16 00:11:24;;;;;;;8.77;3.97;;;;;;;21.08;100.00;96783.88;5041019;28;20208;-63
2023/08/16 00:13:50;;;;;;;6.78;4.32;;;;;;;21.03;100.00;96786.31;5041516;28;20196;-63
2023/08/16 00:16:19;;;;;;;3.95;3.55;;;;;;;21.02;100.00;96787.34;5040853;28;20290;-63
2023/08/16 00:18:45;;;;;;;5.75;3.50;;;;;;;21.01;100.00;96783.03;5041164;28;20581;-62
2023/08/16 00:21:13;;;;;;;5.55;3.60;;;;;;;20.96;100.00;96775.56;5040829;28;20201;-63
2023/08/16 00:23:39;;;;;;;5.88;3.42;;;;;;;20.93;100.00;96772.47;5040703;28;20211;-62
2023/08/16 00:26:06;;;;;;;6.38;3.30;;;;;;;20.93;100.00;96769.78;5040794;28;20888;-62
2023/08/16 00:28:32;;;;;;;8.63;3.83;;;;;;;20.90;100.00;96764.81;5040771;28;20203;-63
2023/08/16 00:30:59;;;;;;;4.30;3.72;;;;;;;20.87;100.00;96767.91;5040203;28;20232;-62
2023/08/16 00:33:25;;;;;;;3.72;3.40;;;;;;;20.87;100.00;96759.84;5041158;28;20210;-62
2023/08/16 00:35:52;;;;;;;6.30;3.90;;;;;;;20.86;100.00;96742.88;5039848;28;20208;-64
2023/08/16 00:38:20;;;;;;;4.38;3.53;;;;;;;20.85;100.00;96747.44;5040177;28;20214;-61
2023/08/16 00:40:50;;;;;;;6.18;3.50;;;;;;;20.77;100.00;96736.84;5040939;28;20210;-63
2023/08/16 00:43:16;;;;;;;3.90;3.60;;;;;;;20.77;100.00;96734.16;5039937;28;20196;-62
2023/08/16 00:45:43;;;;;;;7.95;3.97;;;;;;;20.76;100.00;96732.50;5040763;28;20640;-62
2023/08/16 00:48:10;;;;;;;4.10;3.70;;;;;;;20.75;100.00;96733.56;5040287;28;20204;-61
2023/08/16 00:50:36;;;;;;;5.95;4.22;;;;;;;20.79;100.00;96736.66;5040256;28;20230;-62
2023/08/16 00:53:03;;;;;;;7.05;3.80;;;;;;;20.81;100.00;96730.03;5040381;28;20204;-62
2023/08/16 00:55:31;;;;;;;5.50;3.70;;;;;;;20.81;100.00;96732.72;5040922;28;20204;-62
2023/08/16 00:57:57;;;;;;;4.05;3.75;;;;;;;20.84;100.00;96734.19;5040645;28;20218;-63
2023/08/16 01:00:24;;;;;;;5.47;3.80;;;;;;;20.83;100.00;96727.97;5040923;28;20211;-63
2023/08/16 01:02:51;;;;;;;5.03;3.97;;;;;;;20.80;100.00;96733.75;5039739;28;20244;-63
2023/08/16 01:05:18;;;;;;;4.50;4.10;;;;;;;20.74;100.00;96731.06;5042471;28;20208;-63
2023/08/16 01:07:45;;;;;;;4.65;3.92;;;;;;;20.80;100.00;96724.84;5046367;28;20195;-63
2023/08/16 01:10:12;;;;;;;3.83;3.47;;;;;;;20.72;100.00;96725.06;5050207;28;20652;-63
2023/08/16 01:12:44;;;;;;;6.90;4.35;;;;;;;20.66;100.00;96732.06;5028915;28;21293;-63
2023/08/16 01:15:23;;;;;;;5.32;3.80;;;;;;;20.64;100.00;96722.56;5046763;28;20258;-63
2023/08/16 01:17:51;;;;;;;4.80;3.85;;;;;;;20.63;100.00;96720.91;5026880;28;20206;-63
2023/08/16 01:20:18;;;;;;;4.57;4.18;;;;;;;20.55;100.00;96718.41;5046554;28;20204;-61
2023/08/16 01:22:52;;;;;;;5.97;4.10;;;;;;;20.56;100.00;96718.22;5026756;28;20230;-62
2023/08/16 01:25:27;;;;;;;5.20;4.30;;;;;;;20.56;100.00;96718.22;5045596;28;20207;-63
2023/08/16 01:27:55;;;;;;;7.50;4.53;;;;;;;20.58;100.00;96718.81;5044260;28;20233;-62
2023/08/16 01:30:22;;;;;;;6.55;4.10;;;;;;;20.53;100.00;96715.94;5045794;28;20200;-62
2023/08/16 01:32:49;;;;;;;4.88;4.38;;;;;;;20.53;100.00;96723.16;5044758;28;20242;-62
2023/08/16 01:35:16;;;;;;;4.85;4.28;;;;;;;20.50;100.00;96727.09;5044635;28;20210;-62
2023/08/16 01:37:42;;;;;;;4.82;4.13;;;;;;;20.47;100.00;96727.50;5044415;28;20207;-62
2023/08/16 01:40:09;;;;;;;4.53;4.13;;;;;;;20.43;100.00;96725.41;5044061;28;20199;-62
2023/08/16 01:42:41;;;;;;;7.22;4.50;;;;;;;20.36;100.00;96725.41;5044144;28;20199;-62
2023/08/16 01:45:09;;;;;;;6.75;4.57;;;;;;;20.39;100.00;96719.63;5045171;28;20205;-62
2023/08/16 01:47:36;;;;;;;5.60;4.00;;;;;;;20.38;100.00;96717.94;5044345;28;20515;-62
2023/08/16 01:50:03;;;;;;;6.28;4.22;;;;;;;20.28;100.00;96723.72;5043878;28;20547;-62
2023/08/16 01:52:30;;;;;;;4.93;4.05;;;;;;;20.29;100.00;96729.94;5044146;28;20227;-63
2023/08/16 01:54:57;;;;;;;4.97;4.35;;;;;;;20.28;100.00;96730.94;5044550;28;20204;-62
2023/08/16 01:57:25;;;;;;;4.47;3.90;;;;;;;20.27;100.00;96722.06;5042447;28;20240;-62
2023/08/16 01:59:51;;;;;;;4.80;4.40;;;;;;;20.29;100.00;96729.94;5042764;28;20203;-63
2023/08/16 02:02:19;;;;;;;5.38;4.05;;;;;;;20.23;100.00;96725.31;5042914;28;20215;-62
2023/08/16 02:04:46;;;;;;;4.47;4.07;;;;;;;20.25;100.00;96728.63;5041908;28;20238;-63
2023/08/16 02:07:13;;;;;;;4.65;4.25;;;;;;;20.15;100.00;96728.19;5042941;28;20199;-61
2023/08/16 02:09:39;;;;;;;6.93;4.53;;;;;;;20.12;100.00;96728.59;5042770;28;20562;-63
2023/08/16 02:12:07;;;;;;;5.82;4.15;;;;;;;20.14;100.00;96732.72;5042475;28;20238;-63
2023/08/16 02:14:33;;;;;;;7.93;4.32;;;;;;;20.07;100.00;96731.88;5043965;28;20203;-63
2023/08/16 02:16:59;;;;;;;4.80;4.20;;;;;;;20.07;100.00;96725.66;5043545;28;20214;-63
2023/08/16 02:19:27;;;;;;;5.70;4.38;;;;;;;20.06;100.00;96721.31;5042413;28;20593;-63
2023/08/16 02:21:54;;;;;;;5.68;4.65;;;;;;;20.05;100.00;96719.69;5043317;28;20199;-62
2023/08/16 02:24:20;;;;;;;6.93;4.50;;;;;;;20.09;100.00;96723.59;5044352;28;20199;-62
2023/08/16 02:26:47;;;;;;;4.85;4.38;;;;;;;20.08;100.00;96730.00;5047318;28;20198;-62
2023/08/16 02:29:13;;;;;;;4.80;4.30;;;;;;;20.00;100.00;96730.19;5049268;28;20196;-63
2023/08/16 02:31:40;;;;;;;4.40;4.00;;;;;;;20.02;100.00;96728.09;5051322;28;20675;-64
2023/08/16 02:34:08;;;;;;;4.93;4.50;;;;;;;20.02;100.00;96730.78;5051261;28;20199;-63
2023/08/16 02:36:35;;;;;;;4.70;4.30;;;;;;;20.00;100.00;96727.50;5052264;28;20222;-64
2023/08/16 02:39:02;;;;;;;6.53;4.88;;;;;;;19.94;100.00;96729.13;5049910;28;20269;-63
2023/08/16 02:41:29;;;;;;;4.95;4.30;;;;;;;19.98;100.00;96724.19;5040623;28;20640;-62
2023/08/16 02:43:55;;;;;;;4.90;4.32;;;;;;;19.97;100.00;96725.22;5041995;28;20218;-64
2023/08/16 02:46:22;;;;;;;6.20;4.43;;;;;;;19.85;100.00;96717.72;5042414;28;20204;-63
2023/08/16 02:48:48;;;;;;;5.30;4.80;;;;;;;19.83;100.00;96714.41;5041619;28;20199;-64
2023/08/16 02:51:15;;;;;;;8.98;5.00;;;;;;;19.86;100.00;96715.88;5042528;28;20888;-62
2023/08/16 02:53:43;;;;;;;4.60;4.20;;;;;;;19.80;100.00;96708.63;5042275;28;20220;-63
2023/08/16 02:56:09;;;;;;;4.93;4.50;;;;;;;19.80;100.00;96704.06;5042672;28;20204;-63
2023/08/16 02:58:36;;;;;;;5.63;5.00;;;;;;;19.80;100.00;96697.88;5041715;28;20208;-63
2023/08/16 03:01:03;;;;;;;4.88;4.35;;;;;;;19.82;100.00;96699.34;5041712;28;20211;-63
2023/08/16 03:03:30;;;;;;;5.43;4.82;;;;;;;19.86;100.00;96708.66;5041808;28;20293;-62
2023/08/16 03:05:56;;;;;;;4.95;4.55;;;;;;;19.77;100.00;96709.81;5042072;28;20774;-65
2023/08/16 03:08:23;;;;;;;8.10;4.43;;;;;;;19.76;100.00;96704.69;5041401;28;20208;-63
2023/08/16 03:10:51;;;;;;;5.97;4.57;;;;;;;19.76;100.00;96708.19;5041470;28;20651;-63
2023/08/16 03:13:18;;;;;;;4.93;4.60;;;;;;;19.77;100.00;96703.63;5045138;28;20228;-62
2023/08/16 03:15:44;;;;;;;5.13;4.63;;;;;;;19.73;100.00;96703.19;5055110;28;20199;-63
2023/08/16 03:18:11;;;;;;;5.43;4.53;;;;;;;19.74;100.00;96704.84;5059307;28;20208;-64
2023/08/16 03:20:37;;;;;;;6.60;4.75;;;;;;;19.76;100.00;96702.00;5048986;28;20199;-62
2023/08/16 03:23:04;;;;;;;4.88;4.47;;;;;;;19.72;100.00;96706.94;5045645;28;20203;-64
2023/08/16 03:25:30;;;;;;;5.72;4.80;;;;;;;19.65;100.00;96711.44;5044955;28;20199;-63
2023/08/16 03:27:58;;;;;;;5.63;4.85;;;;;;;19.60;100.00;96713.03;5044189;28;20215;-63
2023/08/16 03:30:24;;;;;;;4.97;4.53;;;;;;;19.62;100.00;96705.63;5043007;28;20779;-63
2023/08/16 03:32:53;;;;;;;6.00;4.68;;;;;;;19.60;100.00;96707.66;5042475;28;20558;-62
2023/08/16 03:35:20;;;;;;;5.05;4.60;;;;;;;19.53;100.00;96713.00;5043124;28;20531;-62
2023/08/16 03:37:46;;;;;;;6.20;4.70;;;;;;;19.54;100.00;96717.34;5042471;28;20636;-63
2023/08/16 03:40:14;;;;;;;6.72;4.82;;;;;;;19.54;100.00;96717.34;5042249;28;20211;-62
2023/08/16 03:42:43;;;;;;;5.07;4.65;;;;;;;19.50;100.00;96717.91;5040869;28;20230;-62
2023/08/16 03:45:11;;;;;;;4.78;4.38;;;;;;;19.50;100.00;96729.47;5042257;28;20231;-63
2023/08/16 03:47:38;;;;;;;5.85;5.10;;;;;;;19.46;100.00;96735.44;5042353;28;20212;-61
2023/08/16 03:50:05;;;;;;;6.15;4.53;;;;;;;19.43;100.00;96727.78;5042192;28;20589;-63
2023/08/16 03:52:32;;;;;;;5.30;4.80;;;;;;;19.43;100.00;96738.50;5041566;28;20228;-62
2023/08/16 03:54:58;;;;;;;7.18;4.95;;;;;;;19.36;100.00;96744.63;5041769;28;20296;-62
2023/08/16 03:57:25;;;;;;;5.20;4.70;;;;;;;19.39;100.00;96746.09;5041495;28;20268;-64
2023/08/16 03:59:52;;;;;;;5.43;4.90;;;;;;;19.40;100.00;96745.06;5041582;28;20215;-62
2023/08/16 04:02:20;;;;;;;6.78;4.97;;;;;;;19.39;100.00;96743.41;5041312;28;20195;-63
2023/08/16 04:04:46;;;;;;;6.22;5.15;;;;;;;19.38;100.00;96747.09;5040010;28;20546;-62
2023/08/16 04:07:13;;;;;;;5.55;5.03;;;;;;;19.31;100.00;96743.53;5041320;28;20615;-63
2023/08/16 04:09:39;;;;;;;5.40;4.78;;;;;;;19.29;100.00;96743.75;5039846;28;20203;-63
2023/08/16 04:12:06;;;;;;;5.40;4.90;;;;;;;19.32;100.00;96742.53;5040537;28;20223;-63
2023/08/16 04:14:33;;;;;;;4.97;4.57;;;;;;;19.29;100.00;96756.31;5041166;28;20203;-62
2023/08/16 04:17:01;;;;;;;6.10;4.75;;;;;;;19.26;100.00;96760.22;5041244;28;20212;-62
2023/08/16 04:19:31;;;;;;;5.70;5.20;;;;;;;19.26;100.00;96754.88;5040334;28;20215;-63
2023/08/16 04:21:57;;;;;;;6.30;4.85;;;;;;;19.24;100.00;96766.78;5041159;28;20289;-63
2023/08/16 04:24:24;;;;;;;5.20;4.80;;;;;;;19.28;100.00;96763.53;5040845;28;20208;-63
2023/08/16 04:26:50;;;;;;;6.28;5.05;;;;;;;19.27;100.00;96766.44;5039879;28;20230;-65
2023/08/16 04:29:17;;;;;;;7.47;5.03;;;;;;;19.30;100.00;96766.03;5040796;28;20206;-62
2023/08/16 04:31:44;;;;;;;5.90;5.40;;;;;;;19.26;100.00;96770.13;5041938;28;20231;-63
2023/08/16 04:34:13;;;;;;;8.88;4.80;;;;;;;19.30;100.00;96771.41;5048673;28;20263;-64
2023/08/16 04:36:41;;;;;;;6.03;5.05;;;;;;;19.31;100.00;96773.03;5046126;28;20215;-61
2023/08/16 04:39:09;;;;;;;5.65;5.15;;;;;;;19.31;100.00;96773.88;5044664;28;20342;-62
2023/08/16 04:41:35;;;;;;;5.53;5.03;;;;;;;19.34;100.00;96778.03;5043568;28;20200;-58
2023/08/16 04:44:01;;;;;;;5.28;4.88;;;;;;;19.34;100.00;96786.88;5044159;28;20207;-59
2023/08/16 04:46:28;;;;;;;7.32;5.25;;;;;;;19.36;100.00;96784.03;5045353;28;20269;-58
2023/08/16 04:48:55;;;;;;;5.60;5.10;;;;;;;19.40;100.00;96787.97;5043856;28;20203;-59
2023/08/16 04:51:21;;;;;;;6.80;5.05;;;;;;;19.40;100.00;96787.97;5044415;28;20203;-59
2023/08/16 04:53:49;;;;;;;6.15;5.07;;;;;;;19.41;100.00;96788.81;5044044;28;20219;-59
2023/08/16 04:56:15;;;;;;;5.35;4.85;;;;;;;19.42;100.00;96794.00;5044470;28;20211;-58
2023/08/16 04:58:42;;;;;;;10.00;5.43;;;;;;;19.46;100.00;96787.22;5044050;28;20203;-59
2023/08/16 05:01:09;;;;;;;7.22;4.95;;;;;;;19.49;100.00;96797.56;5044157;28;20208;-59
2023/08/16 05:03:35;;;;;;;5.88;5.32;;;;;;;19.48;100.00;96790.56;5044414;28;20254;-58
2023/08/16 05:06:03;;;;;;;5.38;4.88;;;;;;;19.55;100.00;96793.28;5044060;28;20195;-60
2023/08/16 05:08:30;;;;;;;5.10;4.70;;;;;;;19.56;100.00;96793.06;5044309;28;20219;-60
2023/08/16 05:10:59;;;;;;;5.03;4.63;;;;;;;19.67;100.00;96805.13;5043207;28;20229;-60
2023/08/16 05:13:26;;;;;;;5.68;4.70;;;;;;;19.71;100.00;96807.22;5043487;28;20241;-60
2023/08/16 05:15:52;;;;;;;7.40;4.65;;;;;;;19.75;100.00;96803.13;5044556;28;20207;-60
2023/08/16 05:18:19;;;;;;;6.30;5.03;;;;;;;19.82;100.00;96804.00;5044133;28;20300;-68
2023/08/16 05:20:45;;;;;;;5.35;4.90;;;;;;;19.91;100.00;96809.22;5044092;28;20707;-58
2023/08/16 05:23:12;;;;;;;5.63;5.15;;;;;;;19.99;100.00;96807.19;5048217;28;20231;-59
2023/08/16 05:25:38;;;;;;;6.10;5.13;;;;;;;20.09;100.00;96814.88;5047849;28;20203;-59
2023/08/16 05:28:06;;;;;;;5.47;4.97;;;;;;;20.18;100.00;96813.72;5047626;28;20206;-58
2023/08/16 05:30:34;;;;;;;5.90;5.32;;;;;;;20.27;100.00;96813.38;5043829;28;20204;-58
2023/08/16 05:33:00;;;;;;;5.80;5.22;;;;;;;20.35;100.00;96815.06;5043850;28;20216;-59
2023/08/16 05:35:27;;;;;;;5.28;4.88;;;;;;;20.50;100.00;96815.75;5043295;28;20206;-60
2023/08/16 05:37:54;;;;;;;5.50;5.00;;;;;;;20.63;100.00;96823.03;5042225;28;20203;-59
2023/08/16 05:40:21;;;;;;;5.40;4.90;;;;;;;20.63;100.00;96817.66;5042543;28;20231;-60
2023/08/16 05:42:47;;;;;;;5.82;5.28;;;;;;;20.81;100.00;96831.34;5044138;28;20204;-59
2023/08/16 05:45:15;;;;;;;5.68;5.00;;;;;;;21.03;100.00;96832.03;5044316;28;20218;-59
2023/08/16 05:47:42;;;;;;;8.40;7.60;;;;;;;21.17;100.00;96834.59;5043766;28;20215;-59
2023/08/16 05:50:11;;;;;;;6.63;5.93;;;;;;;21.37;100.00;96837.28;5044491;28;20212;-58
2023/08/16 05:52:43;;;;;;;6.25;5.65;;;;;;;21.50;100.00;96825.72;5043907;28;20273;-58
2023/08/16 05:55:09;;;;;;;6.60;5.72;;;;;;;21.65;100.00;96835.22;5043329;28;20532;-58
2023/08/16 05:57:37;;;;;;;6.03;5.20;;;;;;;21.86;100.00;96830.69;5043637;28;20207;-57
2023/08/16 06:00:04;;;;;;;5.70;5.20;;;;;;;22.01;100.00;96828.59;5044330;28;20207;-61
2023/08/16 06:02:33;;;;;;;7.78;5.28;;;;;;;22.21;100.00;96830.19;5044567;28;20204;-61
2023/08/16 06:05:00;;;;;;;6.60;5.38;;;;;;;22.47;100.00;96834.69;5044621;28;20203;-61
2023/08/16 06:07:28;;;;;;;6.00;4.78;;;;;;;22.68;100.00;96837.13;5044153;28;20207;-62
2023/08/16 06:09:57;;;;;;;7.20;5.40;;;;;;;22.89;100.00;96821.66;5043878;28;20261;-61
2023/08/16 06:12:24;;;;;;;6.20;4.63;;;;;;;23.00;100.00;96821.81;5044754;28;20239;-62
2023/08/16 06:14:51;;;;;;;5.13;4.63;;;;;;;23.18;100.00;96821.91;5047636;28;20204;-62
2023/08/16 06:17:18;;;;;;;6.07;4.72;;;;;;;23.38;100.00;96824.50;5046032;28;20208;-62
2023/08/16 06:19:47;;;;;;;5.85;4.47;;;;;;;23.54;100.00;96821.28;5042646;28;20631;-61
2023/08/16 06:22:13;;;;;;;5.10;4.60;;;;;;;23.70;100.00;96820.72;5042362;28;20549;-61
2023/08/16 06:24:40;;;;;;;4.50;4.00;;;;;;;23.79;100.00;96819.41;5042956;28;20508;-62
2023/08/16 06:27:07;;;;;;;6.13;4.95;;;;;;;23.99;100.00;96815.69;5041798;28;20204;-62
2023/08/16 06:29:33;;;;;;;5.10;4.65;;;;;;;24.20;100.00;96823.38;5051395;28;20277;-62
2023/08/16 06:32:00;;;;;;;5.43;4.82;;;;;;;24.38;99.84;96823.41;5053766;28;20208;-62
2023/08/16 06:34:27;;;;;;;5.20;4.70;;;;;;;24.57;97.68;96816.94;5052512;28;20373;-62
2023/08/16 06:36:54;;;;;;;4.88;4.47;;;;;;;24.76;96.88;96815.84;5042631;28;20204;-62
2023/08/16 06:39:21;;;;;;;6.88;4.80;;;;;;;24.97;95.36;96816.47;5041758;28;20226;-60
2023/08/16 06:41:50;;;;;;;5.15;4.65;;;;;;;25.16;93.50;96810.75;5042406;28;20215;-62
2023/08/16 06:44:16;;;;;;;6.00;5.07;;;;;;;25.33;93.34;96821.75;5043879;28;20199;-63
2023/08/16 06:46:44;;;;;;;6.43;5.00;;;;;;;25.48;92.20;96824.84;5042547;28;20199;-61
2023/08/16 06:49:10;;;;;;;5.07;4.60;;;;;;;25.53;91.24;96835.88;5042425;28;20632;-61
2023/08/16 06:51:37;;;;;;;5.88;4.70;;;;;;;25.64;89.65;96824.22;5041679;28;20586;-63
2023/08/16 06:54:05;;;;;;;6.55;4.57;;;;;;;25.81;88.27;96818.13;5042278;28;20219;-62
2023/08/16 06:56:31;;;;;;;4.78;4.40;;;;;;;25.89;85.62;96817.78;5040356;28;20203;-62
2023/08/16 06:58:57;;;;;;;5.20;4.55;;;;;;;26.10;83.97;96822.59;5040984;28;20222;-61
2023/08/16 07:01:24;;;;;;;5.00;4.40;;;;;;;26.26;83.56;96824.63;5042377;28;20540;-62
2023/08/16 07:03:50;;;;;;;5.63;4.38;;;;;;;26.45;83.25;96826.13;5041597;28;20223;-63
2023/08/16 07:06:18;;;;;;;6.45;4.40;;;;;;;26.41;80.42;96830.38;5040606;28;20545;-62
2023/08/16 07:08:44;;;;;;;4.97;4.50;;;;;;;26.62;81.71;96828.94;5042827;28;20203;-62
2023/08/16 07:11:12;;;;;;;6.90;4.38;;;;;;;26.82;80.60;96820.41;5042489;28;20210;-63
2023/08/16 07:13:38;;;;;;;5.45;4.40;;;;;;;26.88;80.77;96820.28;5044653;28;20602;-61
2023/08/16 07:16:05;;;;;;;6.72;4.45;;;;;;;26.95;81.25;96825.56;5043460;28;20210;-63
2023/08/16 07:18:31;;;;;;;8.07;4.65;;;;;;;27.03;79.20;96817.03;5042509;28;20196;-63
2023/08/16 07:20:58;;;;;;;8.27;4.78;;;;;;;27.14;76.99;96819.69;5042633;28;20217;-62
2023/08/16 07:23:24;;;;;;;7.10;4.22;;;;;;;27.21;77.41;96816.81;5042285;28;20187;-62
2023/08/16 07:25:56;;;;;;;7.10;4.57;;;;;;;27.41;78.12;96819.09;5041705;28;20206;-62
2023/08/16 07:28:24;;;;;;;5.68;3.88;;;;;;;27.51;78.40;96820.13;5041118;28;20195;-63
2023/08/16 07:30:53;;;;;;;7.35;4.60;;;;;;;27.49;76.38;96822.25;5041448;28;20200;-62
2023/08/16 07:33:19;;;;;;;6.82;4.57;;;;;;;27.55;76.22;96829.44;5042852;28;20676;-61
2023/08/16 07:35:45;;;;;;;5.82;4.68;;;;;;;27.67;75.91;96827.47;5044910;28;20203;-63
2023/08/16 07:38:12;;;;;;;4.35;4.00;;;;;;;27.84;77.06;96830.19;5049116;28;20203;-63
2023/08/16 07:40:39;;;;;;;6.47;4.40;;;;;;;27.77;74.68;96829.53;5043373;28;20211;-63
2023/08/16 07:43:05;;;;;;;5.97;4.68;;;;;;;28.08;75.66;96834.41;5040245;28;20834;-62
2023/08/16 07:45:33;;;;;;;5.80;4.28;;;;;;;28.09;73.78;96838.75;5040389;28;21471;-63
2023/08/16 07:47:59;;;;;;;4.90;4.00;;;;;;;28.24;72.39;96826.47;5039101;28;20884;-64
2023/08/16 07:50:26;;;;;;;6.00;4.10;;;;;;;28.05;74.63;96834.06;5040900;28;20212;-61
2023/08/16 07:52:52;;;;;;;6.28;4.30;;;;;;;28.28;74.22;96828.44;5041374;28;20237;-63
2023/08/16 07:55:19;;;;;;;4.30;3.90;;;;;;;28.37;73.80;96826.13;5041850;28;20526;-62
2023/08/16 07:57:45;;;;;;;5.55;4.10;;;;;;;28.53;72.26;96831.50;5040797;28;20203;-63
2023/08/16 08:00:14;;;;;;;9.07;4.50;;;;;;;28.53;74.58;96831.50;5040968;28;20195;-61
2023/08/16 08:02:42;;;;;;;4.50;4.03;;;;;;;28.57;72.60;96829.94;5040625;28;20277;-61
2023/08/16 08:05:08;;;;;;;6.13;4.10;;;;;;;28.62;74.13;96830.03;5041147;28;20223;-63
2023/08/16 08:07:35;;;;;;;5.13;4.38;;;;;;;28.67;74.25;96821.09;5040610;28;20203;-62
2023/08/16 08:10:03;;;;;;;5.15;4.10;;;;;;;28.77;73.73;96823.16;5041541;28;20568;-61
2023/08/16 08:12:30;;;;;;;4.97;4.15;;;;;;;28.88;71.47;96822.19;5040668;28;20644;-62
2023/08/16 08:14:57;;;;;;;4.45;4.05;;;;;;;28.92;70.68;96826.03;5041446;28;20227;-63
2023/08/16 08:17:24;;;;;;;6.32;4.30;;;;;;;29.07;70.24;96834.41;5041224;28;20605;-61
2023/08/16 08:19:51;;;;;;;4.38;3.92;;;;;;;29.17;70.84;96818.97;5044063;28;20644;-63
2023/08/16 08:22:20;;;;;;;7.35;4.20;;;;;;;29.27;70.23;96822.91;5044995;28;20218;-62
2023/08/16 08:24:46;;;;;;;4.28;3.88;;;;;;;29.33;67.94;96825.47;5046350;28;20204;-62
2023/08/16 08:27:13;;;;;;;4.97;4.38;;;;;;;29.31;72.66;96830.31;5044597;28;20643;-63
2023/08/16 08:29:40;;;;;;;8.45;4.55;;;;;;;29.44;69.22;96824.47;5044899;28;20223;-62
2023/08/16 08:32:07;;;;;;;8.02;4.53;;;;;;;29.34;69.23;96829.81;5044382;28;20650;-62
2023/08/16 08:34:33;;;;;;;4.70;4.30;;;;;;;29.28;69.78;96825.41;5045288;28;20214;-61
2023/08/16 08:37:01;;;;;;;4.70;4.20;;;;;;;29.26;70.09;96829.44;5043950;28;20206;-63
2023/08/16 08:39:28;;;;;;;5.63;4.32;;;;;;;29.64;69.00;96827.38;5044656;28;20218;-62
2023/08/16 08:41:56;;;;;;;20.65;5.22;;;;;;;29.71;68.43;96818.16;5043989;28;20281;-62
2023/08/16 08:44:23;;;;;;;6.28;4.20;;;;;;;29.71;68.63;96820.91;5043823;28;20230;-64
2023/08/16 08:46:51;;;;;;;11.18;4.75;;;;;;;29.76;67.34;96821.75;5045680;28;20741;-61
2023/08/16 08:49:20;;;;;;;5.28;4.32;;;;;;;29.87;66.78;96828.13;5046515;28;20203;-63
2023/08/16 08:51:47;;;;;;;5.88;4.25;;;;;;;29.98;67.09;96822.50;5043445;28;20211;-60
2023/08/16 08:54:14;;;;;;;6.00;4.47;;;;;;;30.06;66.21;96821.19;5044622;28;20231;-61
2023/08/16 08:56:41;;;;;;;4.88;4.43;;;;;;;30.17;68.53;96824.81;5044103;28;20554;-61
2023/08/16 08:59:08;;;;;;;7.45;4.50;;;;;;;30.27;68.70;96822.16;5044731;28;20207;-61
2023/08/16 09:01:35;;;;;;;5.93;4.15;;;;;;;30.35;66.77;96819.78;5044226;28;20203;-62
2023/08/16 09:04:02;;;;;;;6.30;4.63;;;;;;;30.20;65.52;96821.56;5044923;28;20750;-61
2023/08/16 09:06:29;;;;;;;5.30;4.15;;;;;;;30.56;66.66;96820.72;5044579;28;20216;-62
2023/08/16 09:08:57;;;;;;;4.80;4.25;;;;;;;30.21;68.67;96810.41;5044366;28;20211;-62
2023/08/16 09:11:25;;;;;;;6.35;4.53;;;;;;;30.32;64.77;96819.47;5044231;28;20210;-61
2023/08/16 09:13:54;;;;;;;6.18;4.07;;;;;;;30.66;66.40;96811.75;5044520;28;20251;-61
2023/08/16 09:16:21;;;;;;;4.60;4.05;;;;;;;30.90;66.68;96810.22;5045663;28;20264;-62
2023/08/16 09:18:48;;;;;;;5.88;3.97;;;;;;;31.31;65.15;96806.56;5044091;28;20207;-62
2023/08/16 09:21:16;;;;;;;4.32;3.92;;;;;;;31.22;62.41;96802.69;5045084;28;20231;-62
2023/08/16 09:23:42;;;;;;;5.20;4.45;;;;;;;31.20;63.52;96804.06;5045140;28;20203;-61
2023/08/16 09:26:14;;;;;;;6.72;4.40;;;;;;;31.35;61.63;96802.19;5045238;28;20200;-62
2023/08/16 09:28:42;;;;;;;5.13;4.20;;;;;;;31.36;62.34;96801.09;5043105;28;20199;-62
2023/08/16 09:31:08;;;;;;;5.85;4.25;;;;;;;31.62;61.89;96798.41;5044966;28;20203;-61
2023/08/16 09:33:35;;;;;;;5.70;3.90;;;;;;;31.67;62.42;96790.22;5044902;28;20313;-62
2023/08/16 09:36:03;;;;;;;4.72;3.85;;;;;;;31.83;61.01;96791.84;5043766;28;20212;-62
2023/08/16 09:38:29;;;;;;;5.90;3.83;;;;;;;31.85;60.91;96789.69;5043492;28;20611;-62
2023/08/16 09:40:56;;;;;;;3.90;3.60;;;;;;;31.94;58.50;96798.97;5044510;28;20287;-63
2023/08/16 09:43:22;;;;;;;4.43;4.00;;;;;;;31.35;59.33;96794.00;5043893;28;20202;-61
2023/08/16 09:45:51;;;;;;;4.43;3.53;;;;;;;31.36;60.06;96792.88;5049177;28;20223;-62
2023/08/16 09:48:19;;;;;;;4.47;4.10;;;;;;;31.44;60.49;96784.16;5048534;28;20696;-63
2023/08/16 09:50:46;;;;;;;4.22;3.90;;;;;;;31.72;59.70;96784.75;5046297;28;20218;-63
2023/08/16 09:53:14;;;;;;;4.93;3.70;;;;;;;31.87;58.64;96784.75;5044557;28;20199;-62
2023/08/16 09:55:42;;;;;;;5.85;4.03;;;;;;;31.74;59.54;96788.03;5044337;28;20208;-63
2023/08/16 09:58:11;;;;;;;4.47;3.88;;;;;;;31.77;59.39;96776.53;5042540;28;20203;-61
2023/08/16 10:00:38;;;;;;;5.18;3.90;;;;;;;31.80;59.12;96778.72;5043395;28;20200;-62
2023/08/16 10:03:08;;;;;;;5.80;3.75;;;;;;;31.61;61.53;96772.16;5043890;28;20239;-61
2023/08/16 10:05:36;;;;;;;4.32;3.92;;;;;;;31.71;58.81;96772.97;5043033;28;20196;-61
2023/08/16 10:08:05;;;;;;;4.50;4.10;;;;;;;31.86;58.72;96769.41;5049250;28;20222;-62
2023/08/16 10:10:32;;;;;;;4.50;3.95;;;;;;;31.95;59.82;96763.13;5047657;28;20294;-61
2023/08/16 10:13:00;;;;;;;3.97;3.65;;;;;;;32.13;59.61;96756.28;5044195;28;20294;-62
2023/08/16 10:15:27;;;;;;;4.50;3.80;;;;;;;31.86;55.74;96753.00;5043955;28;20259;-62
2023/08/16 10:17:56;;;;;;;4.82;4.32;;;;;;;31.58;56.88;96757.94;5043520;28;20211;-62
2023/08/16 10:20:25;;;;;;;4.25;3.72;;;;;;;31.52;57.28;96758.22;5043555;28;20200;-61
2023/08/16 10:22:58;;;;;;;4.43;4.05;;;;;;;31.68;56.44;96756.28;5043560;28;20195;-62
2023/08/16 10:25:25;;;;;;;5.22;4.03;;;;;;;31.85;56.30;96752.19;5046888;28;20196;-63
2023/08/16 10:27:57;;;;;;;5.97;3.75;;;;;;;31.88;55.32;96748.91;5055526;28;20279;-62
2023/08/16 10:30:25;;;;;;;4.35;3.90;;;;;;;32.03;54.75;96748.06;5054037;28;20199;-63
2023/08/16 10:32:58;;;;;;;6.38;3.78;;;;;;;32.33;55.20;96737.06;5043311;28;20211;-63
2023/08/16 10:35:26;;;;;;;5.47;3.72;;;;;;;32.11;54.76;96733.03;5043256;28;20204;-62
2023/08/16 10:37:53;;;;;;;5.22;4.18;;;;;;;32.52;56.17;96738.09;5042765;28;20543;-61
2023/08/16 10:40:20;;;;;;;4.47;3.78;;;;;;;32.84;54.67;96732.22;5041903;28;20204;-62
2023/08/16 10:42:53;;;;;;;6.53;4.00;;;;;;;32.56;52.14;96728.22;5042405;28;20212;-63
2023/08/16 10:45:24;;;;;;;4.28;3.90;;;;;;;32.63;53.98;96724.41;5042874;28;20520;-62
2023/08/16 10:47:51;;;;;;;4.00;3.55;;;;;;;32.90;53.42;96725.63;5043050;28;20203;-61
2023/08/16 10:50:19;;;;;;;6.88;4.10;;;;;;;32.92;55.51;96722.59;5041546;28;21430;-62
2023/08/16 10:52:47;;;;;;;4.43;4.03;;;;;;;32.68;51.26;96721.63;5042219;28;20211;-63
2023/08/16 10:55:14;;;;;;;4.05;3.65;;;;;;;32.50;51.20;96721.13;5042669;28;20224;-62
2023/08/16 10:57:52;;;;;;;4.25;3.85;;;;;;;32.94;52.93;96725.88;5041949;28;20211;-61
2023/08/16 11:00:20;;;;;;;4.43;4.10;;;;;;;33.08;53.57;96713.19;5042262;28;20254;-62
2023/08/16 11:02:49;;;;;;;4.45;3.78;;;;;;;33.19;55.31;96720.25;5042227;28;20246;-62
2023/08/16 11:05:19;;;;;;;4.22;3.83;;;;;;;33.12;53.52;96714.28;5042410;28;20351;-61
2023/08/16 11:07:47;;;;;;;6.03;4.00;;;;;;;33.39;53.71;96714.63;5042681;28;20195;-62
2023/08/16 11:10:14;;;;;;;6.00;4.28;;;;;;;33.08;52.16;96715.91;5024936;28;20211;-62
2023/08/16 11:12:41;;;;;;;7.22;3.97;;;;;;;32.92;53.55;96706.97;5041151;28;20636;-61
2023/08/16 11:15:09;;;;;;;4.50;4.10;;;;;;;33.17;52.72;96713.41;5042320;28;20227;-62
2023/08/16 11:17:36;;;;;;;5.18;3.97;;;;;;;33.15;52.30;96710.97;5042327;28;20539;-62
2023/08/16 11:20:04;;;;;;;4.97;4.22;;;;;;;33.43;53.68;96701.97;5041894;28;20260;-62
2023/08/16 11:22:31;;;;;;;5.55;4.28;;;;;;;33.27;55.14;96708.66;5041179;28;20208;-62
2023/08/16 11:25:00;;;;;;;5.30;4.28;;;;;;;33.23;53.58;96699.38;5041807;28;20206;-61
2023/08/16 11:27:28;;;;;;;4.75;4.15;;;;;;;33.17;54.62;96696.97;5041474;28;20593;-63
2023/08/16 11:29:55;;;;;;;4.53;4.15;;;;;;;33.51;52.01;96692.31;5041021;28;20298;-61